Terminal Aerodrome Forecast
Issued by NWS Paducah, KY

Home | Current Version | Previous Version | Text Only | Print | Product List | Glossary On
Versions: 1 2 3 4 5 6 7 8 9 10 11 12 13 14 15 16 17 18 19 20 21
000
FTUS43 KPAH 021131
TAFEVV
TAF
KEVV 021131Z 0212/0312 VRB03KT 4SM SHRA BR SCT035 BKN100
     FM021500 VRB05KT P6SM SCT050 SCT100
     FM021800 25005KT P6SM VCTS BKN035CB OVC100
      TEMPO 0218/0222 3SM -TSRA BR OVC025CB
     FM022200 30006KT P6SM BKN025
      TEMPO 0308/0312 3SM BR=

USA.gov is the U.S. government's official web portal to all federal, state and local government web resources and services.